sensor_id;sensor_type;location;lat;lon;timestamp;P1;durP1;ratioP1;P2;durP2;ratioP2
16039;SDS011;8124;48.634;8.120;2024-02-26T00:03:23;39.13;;;34.08;;
16039;SDS011;8124;48.634;8.120;2024-02-26T00:08:26;38.70;;;33.65;;
16039;SDS011;8124;48.634;8.120;2024-02-26T00:13:29;39.60;;;34.85;;
16039;SDS011;8124;48.634;8.120;2024-02-26T00:18:33;39.08;;;34.28;;
16039;SDS011;8124;48.634;8.120;2024-02-26T00:23:36;39.63;;;33.85;;
16039;SDS011;8124;48.634;8.120;2024-02-26T00:28:39;39.35;;;34.00;;
16039;SDS011;8124;48.634;8.120;2024-02-26T00:33:44;39.30;;;34.22;;
16039;SDS011;8124;48.634;8.120;2024-02-26T00:38:47;38.88;;;33.85;;
16039;SDS011;8124;48.634;8.120;2024-02-26T00:43:52;40.05;;;34.25;;
16039;SDS011;8124;48.634;8.120;2024-02-26T00:48:56;39.90;;;35.38;;
16039;SDS011;8124;48.634;8.120;2024-02-26T00:54:00;38.88;;;34.00;;
16039;SDS011;8124;48.634;8.120;2024-02-26T00:59:03;41.83;;;34.10;;
16039;SDS011;8124;48.634;8.120;2024-02-26T01:04:08;40.97;;;34.33;;
16039;SDS011;8124;48.634;8.120;2024-02-26T01:09:12;39.00;;;34.33;;
16039;SDS011;8124;48.634;8.120;2024-02-26T01:14:15;38.47;;;33.75;;
16039;SDS011;8124;48.634;8.120;2024-02-26T01:19:19;38.92;;;34.13;;
16039;SDS011;8124;48.634;8.120;2024-02-26T01:24:23;40.58;;;34.72;;
16039;SDS011;8124;48.634;8.120;2024-02-26T01:29:26;38.97;;;34.10;;
16039;SDS011;8124;48.634;8.120;2024-02-26T01:34:30;38.75;;;33.90;;
16039;SDS011;8124;48.634;8.120;2024-02-26T01:39:33;38.22;;;33.65;;
16039;SDS011;8124;48.634;8.120;2024-02-26T01:44:37;38.25;;;33.58;;
16039;SDS011;8124;48.634;8.120;2024-02-26T01:49:41;38.78;;;33.72;;
16039;SDS011;8124;48.634;8.120;2024-02-26T01:54:44;38.97;;;34.38;;
16039;SDS011;8124;48.634;8.120;2024-02-26T01:59:48;38.90;;;34.05;;
16039;SDS011;8124;48.634;8.120;2024-02-26T02:04:53;40.20;;;35.80;;
16039;SDS011;8124;48.634;8.120;2024-02-26T02:09:56;39.92;;;33.90;;
16039;SDS011;8124;48.634;8.120;2024-02-26T02:14:59;38.35;;;33.50;;
16039;SDS011;8124;48.634;8.120;2024-02-26T02:20:04;38.42;;;33.88;;
16039;SDS011;8124;48.634;8.120;2024-02-26T02:25:12;38.08;;;33.38;;
16039;SDS011;8124;48.634;8.120;2024-02-26T02:30:15;38.00;;;33.63;;
16039;SDS011;8124;48.634;8.120;2024-02-26T02:35:18;38.13;;;33.42;;
16039;SDS011;8124;48.634;8.120;2024-02-26T02:40:23;38.45;;;33.85;;
16039;SDS011;8124;48.634;8.120;2024-02-26T02:45:26;37.80;;;33.33;;
16039;SDS011;8124;48.634;8.120;2024-02-26T02:50:29;39.10;;;33.88;;
16039;SDS011;8124;48.634;8.120;2024-02-26T02:55:33;38.05;;;33.42;;
16039;SDS011;8124;48.634;8.120;2024-02-26T03:00:36;38.25;;;33.30;;
16039;SDS011;8124;48.634;8.120;2024-02-26T03:05:39;37.38;;;32.92;;
16039;SDS011;8124;48.634;8.120;2024-02-26T03:10:44;38.17;;;33.20;;
16039;SDS011;8124;48.634;8.120;2024-02-26T03:15:47;38.67;;;34.13;;
16039;SDS011;8124;48.634;8.120;2024-02-26T03:20:50;39.60;;;34.05;;
16039;SDS011;8124;48.634;8.120;2024-02-26T03:25:54;38.17;;;33.92;;
16039;SDS011;8124;48.634;8.120;2024-02-26T03:30:57;37.78;;;33.42;;
16039;SDS011;8124;48.634;8.120;2024-02-26T03:36:01;37.70;;;33.22;;
16039;SDS011;8124;48.634;8.120;2024-02-26T03:41:05;37.95;;;33.33;;
16039;SDS011;8124;48.634;8.120;2024-02-26T03:46:09;40.03;;;33.33;;
16039;SDS011;8124;48.634;8.120;2024-02-26T03:51:14;37.65;;;33.40;;
16039;SDS011;8124;48.634;8.120;2024-02-26T03:56:19;38.17;;;33.50;;
16039;SDS011;8124;48.634;8.120;2024-02-26T04:01:22;38.58;;;33.92;;
16039;SDS011;8124;48.634;8.120;2024-02-26T04:06:25;38.13;;;33.42;;
16039;SDS011;8124;48.634;8.120;2024-02-26T04:11:29;38.53;;;33.45;;
16039;SDS011;8124;48.634;8.120;2024-02-26T04:16:32;38.95;;;34.05;;
16039;SDS011;8124;48.634;8.120;2024-02-26T04:21:35;37.88;;;33.20;;
16039;SDS011;8124;48.634;8.120;2024-02-26T04:26:39;38.53;;;34.22;;
16039;SDS011;8124;48.634;8.120;2024-02-26T04:31:42;39.67;;;34.03;;
16039;SDS011;8124;48.634;8.120;2024-02-26T04:36:47;38.20;;;33.58;;
16039;SDS011;8124;48.634;8.120;2024-02-26T04:41:51;37.85;;;33.45;;
16039;SDS011;8124;48.634;8.120;2024-02-26T04:46:54;37.50;;;33.08;;
16039;SDS011;8124;48.634;8.120;2024-02-26T04:51:57;38.00;;;33.17;;
16039;SDS011;8124;48.634;8.120;2024-02-26T04:57:01;37.92;;;33.53;;
16039;SDS011;8124;48.634;8.120;2024-02-26T05:02:05;38.20;;;33.72;;
16039;SDS011;8124;48.634;8.120;2024-02-26T05:07:08;38.30;;;33.45;;
16039;SDS011;8124;48.634;8.120;2024-02-26T05:12:12;38.80;;;33.88;;
16039;SDS011;8124;48.634;8.120;2024-02-26T05:17:15;38.25;;;33.83;;
16039;SDS011;8124;48.634;8.120;2024-02-26T05:22:18;39.97;;;34.10;;
16039;SDS011;8124;48.634;8.120;2024-02-26T05:27:22;38.00;;;33.45;;
16039;SDS011;8124;48.634;8.120;2024-02-26T05:32:25;38.03;;;33.78;;
16039;SDS011;8124;48.634;8.120;2024-02-26T05:37:28;37.67;;;33.53;;
16039;SDS011;8124;48.634;8.120;2024-02-26T05:42:32;38.83;;;33.97;;
16039;SDS011;8124;48.634;8.120;2024-02-26T05:47:35;38.90;;;33.83;;
16039;SDS011;8124;48.634;8.120;2024-02-26T05:52:43;38.47;;;33.45;;
16039;SDS011;8124;48.634;8.120;2024-02-26T05:57:48;38.13;;;33.72;;
16039;SDS011;8124;48.634;8.120;2024-02-26T06:02:51;41.78;;;34.80;;
16039;SDS011;8124;48.634;8.120;2024-02-26T06:07:54;39.60;;;34.38;;
16039;SDS011;8124;48.634;8.120;2024-02-26T06:12:58;41.80;;;34.72;;
16039;SDS011;8124;48.634;8.120;2024-02-26T06:18:01;39.20;;;33.08;;
16039;SDS011;8124;48.634;8.120;2024-02-26T06:23:04;38.83;;;34.03;;
16039;SDS011;8124;48.634;8.120;2024-02-26T06:28:09;37.92;;;33.38;;
16039;SDS011;8124;48.634;8.120;2024-02-26T06:33:12;39.65;;;34.00;;
16039;SDS011;8124;48.634;8.120;2024-02-26T06:38:16;43.67;;;36.47;;
16039;SDS011;8124;48.634;8.120;2024-02-26T06:43:20;37.75;;;33.25;;
16039;SDS011;8124;48.634;8.120;2024-02-26T06:48:23;38.10;;;33.38;;
16039;SDS011;8124;48.634;8.120;2024-02-26T06:53:27;40.13;;;34.35;;
16039;SDS011;8124;48.634;8.120;2024-02-26T06:58:31;39.50;;;34.20;;
16039;SDS011;8124;48.634;8.120;2024-02-26T07:03:34;39.58;;;34.05;;
16039;SDS011;8124;48.634;8.120;2024-02-26T07:08:37;38.28;;;33.67;;
16039;SDS011;8124;48.634;8.120;2024-02-26T07:13:41;40.00;;;34.08;;
16039;SDS011;8124;48.634;8.120;2024-02-26T07:18:45;38.85;;;33.67;;
16039;SDS011;8124;48.634;8.120;2024-02-26T07:23:48;40.05;;;34.42;;
16039;SDS011;8124;48.634;8.120;2024-02-26T07:28:52;43.92;;;34.78;;
16039;SDS011;8124;48.634;8.120;2024-02-26T07:33:55;43.92;;;34.72;;
16039;SDS011;8124;48.634;8.120;2024-02-26T07:38:58;40.17;;;34.60;;
16039;SDS011;8124;48.634;8.120;2024-02-26T07:44:04;40.47;;;34.25;;
16039;SDS011;8124;48.634;8.120;2024-02-26T07:49:06;39.90;;;34.03;;
16039;SDS011;8124;48.634;8.120;2024-02-26T07:54:10;39.83;;;34.25;;
16039;SDS011;8124;48.634;8.120;2024-02-26T07:59:15;40.78;;;34.05;;
16039;SDS011;8124;48.634;8.120;2024-02-26T08:04:17;39.90;;;34.45;;
16039;SDS011;8124;48.634;8.120;2024-02-26T08:09:21;39.97;;;34.95;;
16039;SDS011;8124;48.634;8.120;2024-02-26T08:14:25;39.88;;;34.30;;
16039;SDS011;8124;48.634;8.120;2024-02-26T08:19:28;39.40;;;34.58;;
16039;SDS011;8124;48.634;8.120;2024-02-26T08:24:31;40.15;;;34.42;;
16039;SDS011;8124;48.634;8.120;2024-02-26T08:29:35;39.25;;;33.92;;
16039;SDS011;8124;48.634;8.120;2024-02-26T08:34:38;40.47;;;34.33;;
16039;SDS011;8124;48.634;8.120;2024-02-26T08:39:41;39.38;;;34.65;;
16039;SDS011;8124;48.634;8.120;2024-02-26T08:44:46;38.38;;;33.83;;
16039;SDS011;8124;48.634;8.120;2024-02-26T08:49:48;38.75;;;33.78;;
16039;SDS011;8124;48.634;8.120;2024-02-26T08:54:51;39.25;;;33.97;;
16039;SDS011;8124;48.634;8.120;2024-02-26T08:59:56;39.28;;;34.08;;
16039;SDS011;8124;48.634;8.120;2024-02-26T09:04:59;41.35;;;34.25;;
16039;SDS011;8124;48.634;8.120;2024-02-26T09:10:02;41.42;;;34.70;;
16039;SDS011;8124;48.634;8.120;2024-02-26T09:15:07;47.55;;;35.55;;
16039;SDS011;8124;48.634;8.120;2024-02-26T09:20:11;40.70;;;34.95;;
16039;SDS011;8124;48.634;8.120;2024-02-26T09:25:16;39.97;;;34.70;;
16039;SDS011;8124;48.634;8.120;2024-02-26T09:30:20;39.97;;;34.58;;
16039;SDS011;8124;48.634;8.120;2024-02-26T09:35:24;42.58;;;34.75;;
16039;SDS011;8124;48.634;8.120;2024-02-26T09:40:28;39.33;;;34.65;;
16039;SDS011;8124;48.634;8.120;2024-02-26T09:45:32;41.47;;;34.75;;
16039;SDS011;8124;48.634;8.120;2024-02-26T09:50:36;40.00;;;34.55;;
16039;SDS011;8124;48.634;8.120;2024-02-26T09:55:41;40.08;;;34.67;;
16039;SDS011;8124;48.634;8.120;2024-02-26T10:00:46;41.05;;;35.97;;
16039;SDS011;8124;48.634;8.120;2024-02-26T10:05:53;40.83;;;34.95;;
16039;SDS011;8124;48.634;8.120;2024-02-26T10:10:57;40.25;;;35.30;;
16039;SDS011;8124;48.634;8.120;2024-02-26T10:16:01;40.05;;;34.60;;
16039;SDS011;8124;48.634;8.120;2024-02-26T10:21:05;39.47;;;34.58;;
16039;SDS011;8124;48.634;8.120;2024-02-26T10:26:09;40.97;;;34.88;;
16039;SDS011;8124;48.634;8.120;2024-02-26T10:31:14;41.97;;;34.70;;
16039;SDS011;8124;48.634;8.120;2024-02-26T10:36:17;41.33;;;34.63;;
16039;SDS011;8124;48.634;8.120;2024-02-26T10:41:20;40.65;;;34.25;;
16039;SDS011;8124;48.634;8.120;2024-02-26T10:46:26;39.58;;;34.20;;
16039;SDS011;8124;48.634;8.120;2024-02-26T10:51:30;40.38;;;34.70;;
16039;SDS011;8124;48.634;8.120;2024-02-26T10:56:34;40.38;;;35.25;;
16039;SDS011;8124;48.634;8.120;2024-02-26T11:01:40;41.15;;;35.40;;
16039;SDS011;8124;48.634;8.120;2024-02-26T11:06:48;42.85;;;35.45;;
16039;SDS011;8124;48.634;8.120;2024-02-26T11:11:53;40.70;;;34.75;;
16039;SDS011;8124;48.634;8.120;2024-02-26T11:16:58;39.55;;;34.45;;
16039;SDS011;8124;48.634;8.120;2024-02-26T11:22:02;42.08;;;34.78;;
16039;SDS011;8124;48.634;8.120;2024-02-26T11:27:22;40.67;;;34.88;;
16039;SDS011;8124;48.634;8.120;2024-02-26T11:32:29;39.83;;;34.90;;
16039;SDS011;8124;48.634;8.120;2024-02-26T11:37:32;39.67;;;34.70;;
16039;SDS011;8124;48.634;8.120;2024-02-26T11:42:43;40.05;;;34.55;;
16039;SDS011;8124;48.634;8.120;2024-02-26T11:47:52;40.78;;;34.80;;
16039;SDS011;8124;48.634;8.120;2024-02-26T11:58:25;41.20;;;34.67;;
16039;SDS011;8124;48.634;8.120;2024-02-26T12:03:29;41.38;;;35.55;;
16039;SDS011;8124;48.634;8.120;2024-02-26T12:08:34;39.72;;;34.53;;
16039;SDS011;8124;48.634;8.120;2024-02-26T12:13:37;42.25;;;35.13;;
16039;SDS011;8124;48.634;8.120;2024-02-26T12:18:42;41.50;;;35.65;;
16039;SDS011;8124;48.634;8.120;2024-02-26T12:23:47;40.42;;;35.13;;
16039;SDS011;8124;48.634;8.120;2024-02-26T12:28:50;39.80;;;34.35;;
16039;SDS011;8124;48.634;8.120;2024-02-26T12:33:55;40.08;;;34.15;;
16039;SDS011;8124;48.634;8.120;2024-02-26T12:38:58;39.65;;;34.30;;
16039;SDS011;8124;48.634;8.120;2024-02-26T12:44:02;39.55;;;34.33;;
16039;SDS011;8124;48.634;8.120;2024-02-26T12:49:06;39.38;;;34.38;;
16039;SDS011;8124;48.634;8.120;2024-02-26T12:54:12;39.67;;;34.08;;
16039;SDS011;8124;48.634;8.120;2024-02-26T12:59:15;39.92;;;34.55;;
16039;SDS011;8124;48.634;8.120;2024-02-26T13:04:20;39.75;;;34.25;;
16039;SDS011;8124;48.634;8.120;2024-02-26T13:09:24;39.83;;;34.47;;
16039;SDS011;8124;48.634;8.120;2024-02-26T13:14:27;40.22;;;34.22;;
16039;SDS011;8124;48.634;8.120;2024-02-26T13:19:33;39.67;;;34.22;;
16039;SDS011;8124;48.634;8.120;2024-02-26T13:24:36;39.92;;;35.03;;
16039;SDS011;8124;48.634;8.120;2024-02-26T13:29:40;41.15;;;34.03;;
16039;SDS011;8124;48.634;8.120;2024-02-26T13:34:44;39.58;;;34.47;;
16039;SDS011;8124;48.634;8.120;2024-02-26T13:39:47;40.20;;;34.92;;
16039;SDS011;8124;48.634;8.120;2024-02-26T13:44:50;39.38;;;34.45;;
16039;SDS011;8124;48.634;8.120;2024-02-26T13:49:54;39.63;;;34.40;;
16039;SDS011;8124;48.634;8.120;2024-02-26T13:54:57;39.40;;;34.33;;
16039;SDS011;8124;48.634;8.120;2024-02-26T14:00:01;39.63;;;34.53;;
16039;SDS011;8124;48.634;8.120;2024-02-26T14:05:13;39.92;;;34.17;;
16039;SDS011;8124;48.634;8.120;2024-02-26T14:10:16;39.45;;;34.03;;
16039;SDS011;8124;48.634;8.120;2024-02-26T14:15:19;39.75;;;34.42;;
16039;SDS011;8124;48.634;8.120;2024-02-26T14:20:24;39.60;;;34.20;;
16039;SDS011;8124;48.634;8.120;2024-02-26T14:25:28;39.95;;;34.45;;
16039;SDS011;8124;48.634;8.120;2024-02-26T14:30:32;39.38;;;34.35;;
16039;SDS011;8124;48.634;8.120;2024-02-26T14:35:36;39.92;;;34.40;;
16039;SDS011;8124;48.634;8.120;2024-02-26T14:40:39;40.00;;;34.35;;
16039;SDS011;8124;48.634;8.120;2024-02-26T14:45:42;39.85;;;34.45;;
16039;SDS011;8124;48.634;8.120;2024-02-26T14:50:46;40.10;;;34.67;;
16039;SDS011;8124;48.634;8.120;2024-02-26T14:55:49;39.63;;;34.15;;
16039;SDS011;8124;48.634;8.120;2024-02-26T15:00:52;39.53;;;34.50;;
16039;SDS011;8124;48.634;8.120;2024-02-26T15:05:57;39.97;;;34.70;;
16039;SDS011;8124;48.634;8.120;2024-02-26T15:11:00;39.45;;;34.42;;
16039;SDS011;8124;48.634;8.120;2024-02-26T15:16:04;39.53;;;34.10;;
16039;SDS011;8124;48.634;8.120;2024-02-26T15:21:09;39.75;;;34.42;;
16039;SDS011;8124;48.634;8.120;2024-02-26T15:26:13;40.35;;;34.55;;
16039;SDS011;8124;48.634;8.120;2024-02-26T15:31:16;43.17;;;34.35;;
16039;SDS011;8124;48.634;8.120;2024-02-26T15:36:21;40.92;;;34.83;;
16039;SDS011;8124;48.634;8.120;2024-02-26T15:41:24;40.58;;;34.72;;
16039;SDS011;8124;48.634;8.120;2024-02-26T15:46:28;40.80;;;35.05;;
16039;SDS011;8124;48.634;8.120;2024-02-26T15:51:32;41.92;;;34.75;;
16039;SDS011;8124;48.634;8.120;2024-02-26T15:56:36;40.13;;;35.15;;
16039;SDS011;8124;48.634;8.120;2024-02-26T16:01:40;44.53;;;35.58;;
16039;SDS011;8124;48.634;8.120;2024-02-26T16:06:46;40.30;;;35.00;;
16039;SDS011;8124;48.634;8.120;2024-02-26T16:11:52;40.60;;;35.05;;
16039;SDS011;8124;48.634;8.120;2024-02-26T16:16:56;42.08;;;35.25;;
16039;SDS011;8124;48.634;8.120;2024-02-26T16:22:04;44.10;;;35.40;;
16039;SDS011;8124;48.634;8.120;2024-02-26T16:27:07;41.47;;;35.22;;
16039;SDS011;8124;48.634;8.120;2024-02-26T16:32:10;40.75;;;34.50;;
16039;SDS011;8124;48.634;8.120;2024-02-26T16:37:45;40.33;;;34.92;;
16039;SDS011;8124;48.634;8.120;2024-02-26T16:42:56;40.45;;;34.72;;
16039;SDS011;8124;48.634;8.120;2024-02-26T16:48:02;39.65;;;34.35;;
16039;SDS011;8124;48.634;8.120;2024-02-26T16:53:10;40.47;;;34.85;;
16039;SDS011;8124;48.634;8.120;2024-02-26T16:58:13;40.13;;;34.65;;
16039;SDS011;8124;48.634;8.120;2024-02-26T17:03:16;44.90;;;34.53;;
16039;SDS011;8124;48.634;8.120;2024-02-26T17:08:21;41.13;;;35.80;;
16039;SDS011;8124;48.634;8.120;2024-02-26T17:13:25;40.72;;;35.28;;
16039;SDS011;8124;48.634;8.120;2024-02-26T17:18:29;41.65;;;35.50;;
16039;SDS011;8124;48.634;8.120;2024-02-26T17:23:37;41.15;;;35.67;;
16039;SDS011;8124;48.634;8.120;2024-02-26T17:28:42;42.05;;;36.22;;
16039;SDS011;8124;48.634;8.120;2024-02-26T17:34:12;41.00;;;35.28;;
16039;SDS011;8124;48.634;8.120;2024-02-26T17:46:16;42.03;;;36.13;;
16039;SDS011;8124;48.634;8.120;2024-02-26T17:51:19;43.42;;;36.67;;
16039;SDS011;8124;48.634;8.120;2024-02-26T17:56:24;41.90;;;35.70;;
16039;SDS011;8124;48.634;8.120;2024-02-26T18:01:27;41.35;;;35.15;;
16039;SDS011;8124;48.634;8.120;2024-02-26T18:06:31;41.47;;;35.90;;
16039;SDS011;8124;48.634;8.120;2024-02-26T18:11:36;41.33;;;35.33;;
16039;SDS011;8124;48.634;8.120;2024-02-26T18:16:39;41.70;;;36.28;;
16039;SDS011;8124;48.634;8.120;2024-02-26T18:21:42;40.30;;;34.97;;
16039;SDS011;8124;48.634;8.120;2024-02-26T18:26:47;42.83;;;36.30;;
16039;SDS011;8124;48.634;8.120;2024-02-26T18:31:53;42.78;;;35.80;;
16039;SDS011;8124;48.634;8.120;2024-02-26T18:36:56;42.80;;;34.90;;
16039;SDS011;8124;48.634;8.120;2024-02-26T18:42:01;40.88;;;34.92;;
16039;SDS011;8124;48.634;8.120;2024-02-26T18:47:06;42.22;;;35.95;;
16039;SDS011;8124;48.634;8.120;2024-02-26T18:52:10;40.97;;;35.22;;
16039;SDS011;8124;48.634;8.120;2024-02-26T18:57:14;40.08;;;35.00;;
16039;SDS011;8124;48.634;8.120;2024-02-26T19:02:18;41.10;;;35.08;;
16039;SDS011;8124;48.634;8.120;2024-02-26T19:07:21;43.25;;;34.75;;
16039;SDS011;8124;48.634;8.120;2024-02-26T19:12:26;40.10;;;34.80;;
16039;SDS011;8124;48.634;8.120;2024-02-26T19:17:29;40.90;;;35.22;;
16039;SDS011;8124;48.634;8.120;2024-02-26T19:22:32;41.60;;;34.92;;
16039;SDS011;8124;48.634;8.120;2024-02-26T19:27:36;39.95;;;34.55;;
16039;SDS011;8124;48.634;8.120;2024-02-26T19:32:39;40.47;;;34.63;;
16039;SDS011;8124;48.634;8.120;2024-02-26T19:37:43;40.95;;;34.92;;
16039;SDS011;8124;48.634;8.120;2024-02-26T19:42:47;40.45;;;35.25;;
16039;SDS011;8124;48.634;8.120;2024-02-26T19:47:50;40.28;;;34.97;;
16039;SDS011;8124;48.634;8.120;2024-02-26T19:52:53;40.38;;;35.45;;
16039;SDS011;8124;48.634;8.120;2024-02-26T19:57:57;41.38;;;35.60;;
16039;SDS011;8124;48.634;8.120;2024-02-26T20:03:01;41.15;;;35.70;;
16039;SDS011;8124;48.634;8.120;2024-02-26T20:08:04;42.08;;;35.60;;
16039;SDS011;8124;48.634;8.120;2024-02-26T20:13:09;42.05;;;35.78;;
16039;SDS011;8124;48.634;8.120;2024-02-26T20:18:12;42.90;;;35.40;;
16039;SDS011;8124;48.634;8.120;2024-02-26T20:23:16;41.15;;;35.60;;
16039;SDS011;8124;48.634;8.120;2024-02-26T20:28:20;42.30;;;35.83;;
16039;SDS011;8124;48.634;8.120;2024-02-26T20:33:23;40.13;;;34.63;;
16039;SDS011;8124;48.634;8.120;2024-02-26T20:38:26;41.03;;;35.60;;
16039;SDS011;8124;48.634;8.120;2024-02-26T20:43:31;41.15;;;34.80;;
16039;SDS011;8124;48.634;8.120;2024-02-26T20:48:35;40.33;;;34.58;;
16039;SDS011;8124;48.634;8.120;2024-02-26T20:53:39;41.15;;;35.05;;
16039;SDS011;8124;48.634;8.120;2024-02-26T20:58:44;41.60;;;35.42;;
16039;SDS011;8124;48.634;8.120;2024-02-26T21:03:47;40.83;;;35.00;;
16039;SDS011;8124;48.634;8.120;2024-02-26T21:08:51;41.50;;;35.15;;
16039;SDS011;8124;48.634;8.120;2024-02-26T21:13:56;41.00;;;35.28;;
16039;SDS011;8124;48.634;8.120;2024-02-26T21:18:59;44.45;;;36.50;;
16039;SDS011;8124;48.634;8.120;2024-02-26T21:24:05;41.67;;;35.88;;
16039;SDS011;8124;48.634;8.120;2024-02-26T21:29:10;41.65;;;34.95;;
16039;SDS011;8124;48.634;8.120;2024-02-26T21:34:13;41.47;;;35.92;;
16039;SDS011;8124;48.634;8.120;2024-02-26T21:39:16;42.50;;;35.90;;
16039;SDS011;8124;48.634;8.120;2024-02-26T21:44:20;42.97;;;36.22;;
16039;SDS011;8124;48.634;8.120;2024-02-26T21:49:23;46.20;;;36.13;;
16039;SDS011;8124;48.634;8.120;2024-02-26T21:54:26;42.17;;;36.10;;
16039;SDS011;8124;48.634;8.120;2024-02-26T21:59:31;42.85;;;35.80;;
16039;SDS011;8124;48.634;8.120;2024-02-26T22:04:34;43.50;;;36.03;;
16039;SDS011;8124;48.634;8.120;2024-02-26T22:09:37;42.55;;;36.00;;
16039;SDS011;8124;48.634;8.120;2024-02-26T22:14:42;41.47;;;35.65;;
16039;SDS011;8124;48.634;8.120;2024-02-26T22:19:45;42.30;;;35.70;;
16039;SDS011;8124;48.634;8.120;2024-02-26T22:24:48;43.53;;;36.85;;
16039;SDS011;8124;48.634;8.120;2024-02-26T22:29:52;41.60;;;35.55;;
16039;SDS011;8124;48.634;8.120;2024-02-26T22:34:55;45.22;;;35.63;;
16039;SDS011;8124;48.634;8.120;2024-02-26T22:39:58;42.13;;;35.88;;
16039;SDS011;8124;48.634;8.120;2024-02-26T22:45:03;41.92;;;35.35;;
16039;SDS011;8124;48.634;8.120;2024-02-26T22:50:07;42.03;;;34.88;;
16039;SDS011;8124;48.634;8.120;2024-02-26T22:55:11;41.22;;;35.05;;
16039;SDS011;8124;48.634;8.120;2024-02-26T23:00:15;41.30;;;35.90;;
16039;SDS011;8124;48.634;8.120;2024-02-26T23:05:32;44.03;;;35.83;;
16039;SDS011;8124;48.634;8.120;2024-02-26T23:10:36;44.47;;;36.28;;
16039;SDS011;8124;48.634;8.120;2024-02-26T23:15:40;43.05;;;36.28;;
16039;SDS011;8124;48.634;8.120;2024-02-26T23:20:43;43.63;;;36.35;;
16039;SDS011;8124;48.634;8.120;2024-02-26T23:25:46;41.47;;;35.30;;
16039;SDS011;8124;48.634;8.120;2024-02-26T23:30:50;42.10;;;35.50;;
16039;SDS011;8124;48.634;8.120;2024-02-26T23:35:53;41.85;;;35.88;;
16039;SDS011;8124;48.634;8.120;2024-02-26T23:40:56;43.22;;;36.03;;
16039;SDS011;8124;48.634;8.120;2024-02-26T23:46:00;42.63;;;35.55;;
16039;SDS011;8124;48.634;8.120;2024-02-26T23:51:04;40.85;;;35.38;;
16039;SDS011;8124;48.634;8.120;2024-02-26T23:56:07;42.97;;;35.85;;
